Time;durP1;ratioP1;P1;durP2;ratioP2;P2;SDS_P1;SDS_P2;PMS_P1;PMS_P2;Temp;Humidity;BMP_temperature;BMP_pressure;BME280_temperature;BME280_humidity;BME280_pressure;Samples;Min_cycle;Max_cycle;Signal;HPM_P1;HPM_P2
2021/06/20 00:02:18;;;;;;;10.73;8.15;;;26.40;1.00;;;;;;6178322;23;20032;-65
2021/06/20 00:05:10;;;;;;;11.80;8.00;;;26.20;1.00;;;;;;6175311;23;20029;-66
2021/06/20 00:08:01;;;;;;;9.88;7.82;;;26.10;1.00;;;;;;6173733;23;20529;-65
2021/06/20 00:10:51;;;;;;;12.80;8.38;;;26.10;1.00;;;;;;6179235;23;20025;-66
2021/06/20 00:13:40;;;;;;;11.45;8.13;;;26.10;1.00;;;;;;6177729;23;20486;-64
2021/06/20 00:16:29;;;;;;;11.32;8.35;;;26.20;1.00;;;;;;6175280;23;20483;-64
2021/06/20 00:19:17;;;;;;;12.02;8.32;;;26.20;1.00;;;;;;6174328;23;20029;-65
2021/06/20 00:22:07;;;;;;;11.45;8.48;;;26.40;1.00;;;;;;6177876;23;20120;-65
2021/06/20 00:24:56;;;;;;;14.30;8.77;;;26.30;1.00;;;;;;6177052;23;20028;-64
2021/06/20 00:27:45;;;;;;;10.63;7.93;;;26.30;1.00;;;;;;6173665;23;20020;-65
2021/06/20 00:30:36;;;;;;;9.38;7.75;;;26.30;1.00;;;;;;6177598;23;20373;-64
2021/06/20 00:33:24;;;;;;;13.85;8.00;;;26.30;1.00;;;;;;6177593;23;20454;-65
2021/06/20 00:36:13;;;;;;;12.05;7.53;;;26.40;1.00;;;;;;6174264;23;20028;-65
2021/06/20 00:39:04;;;;;;;13.07;8.77;;;26.40;1.00;;;;;;6174948;23;20120;-64
2021/06/20 00:41:52;;;;;;;14.32;8.13;;;26.50;1.00;;;;;;6177266;23;20100;-65
2021/06/20 00:44:45;;;;;;;8.95;7.13;;;26.50;1.00;;;;;;6176189;23;20089;-65
2021/06/20 00:47:33;;;;;;;13.00;8.07;;;26.60;1.00;;;;;;6174727;23;20339;-65
2021/06/20 00:50:22;;;;;;;11.85;7.38;;;26.60;1.00;;;;;;6177018;23;20024;-65
2021/06/20 00:53:11;;;;;;;13.50;7.25;;;26.60;1.00;;;;;;6177208;23;20029;-65
2021/06/20 00:56:01;;;;;;;10.48;7.80;;;26.70;1.00;;;;;;6173615;23;20028;-66
2021/06/20 00:59:01;;;;;;;10.88;6.97;;;26.70;1.00;;;;;;6175161;23;20462;-64
2021/06/20 01:01:50;;;;;;;13.30;7.55;;;26.60;1.00;;;;;;6176978;23;20079;-66
2021/06/20 01:04:39;;;;;;;11.48;7.72;;;26.60;1.00;;;;;;6175232;23;20028;-65
2021/06/20 01:07:27;;;;;;;17.13;8.23;;;26.70;1.00;;;;;;6174086;23;20024;-64
2021/06/20 01:10:16;;;;;;;9.82;7.47;;;26.80;1.00;;;;;;6177250;23;20025;-63
2021/06/20 01:13:07;;;;;;;11.18;7.25;;;26.80;1.00;;;;;;6177100;23;20061;-66
2021/06/20 01:15:56;;;;;;;13.18;7.25;;;27.00;1.00;;;;;;6175144;23;20099;-64
2021/06/20 01:18:44;;;;;;;15.25;6.88;;;27.00;1.00;;;;;;6176242;23;20096;-64
2021/06/20 01:21:32;;;;;;;20.38;7.00;;;27.10;1.00;;;;;;6178991;23;20072;-65
2021/06/20 01:24:22;;;;;;;15.35;6.95;;;27.10;1.00;;;;;;6179403;23;20362;-63
2021/06/20 01:27:11;;;;;;;11.85;6.63;;;27.10;1.00;;;;;;6174869;23;20025;-64
2021/06/20 01:30:03;;;;;;;22.60;7.45;;;27.10;1.00;;;;;;6179543;23;20072;-64
2021/06/20 01:32:53;;;;;;;20.23;7.70;;;27.00;1.00;;;;;;6178769;23;20444;-64
2021/06/20 01:35:42;;;;;;;22.63;8.10;;;26.90;1.00;;;;;;6177079;23;20021;-64
2021/06/20 01:38:30;;;;;;;22.20;7.60;;;26.90;1.00;;;;;;6177091;23;20088;-64
2021/06/20 01:41:21;;;;;;;25.48;7.10;;;26.80;1.00;;;;;;6179179;23;20025;-64
2021/06/20 01:44:09;;;;;;;26.35;8.35;;;26.80;1.00;;;;;;6178972;23;20035;-64
2021/06/20 01:46:57;;;;;;;32.08;8.25;;;26.70;1.00;;;;;;6175717;23;20903;-65
2021/06/20 01:49:46;;;;;;;29.65;7.95;;;26.70;1.00;;;;;;6179393;23;20040;-65
2021/06/20 01:52:34;;;;;;;31.77;8.65;;;26.70;1.00;;;;;;6178952;23;20021;-65
2021/06/20 01:55:23;;;;;;;30.73;7.90;;;26.70;1.00;;;;;;6175816;23;20107;-65
2021/06/20 01:58:14;;;;;;;33.33;7.57;;;26.60;1.00;;;;;;6176179;23;20423;-65
2021/06/20 02:01:03;;;;;;;26.73;8.00;;;26.60;1.00;;;;;;6178532;23;20020;-64
2021/06/20 02:03:51;;;;;;;29.20;7.60;;;26.60;1.00;;;;;;6178834;23;20107;-65
2021/06/20 02:06:42;;;;;;;32.17;8.95;;;26.60;1.00;;;;;;6175468;23;20392;-65
2021/06/20 02:09:30;;;;;;;36.13;8.75;;;26.60;1.00;;;;;;6178491;23;20890;-65
2021/06/20 02:12:21;;;;;;;31.95;7.53;;;26.60;1.00;;;;;;6179317;23;20021;-65
2021/06/20 02:15:13;;;;;;;22.27;7.53;;;26.50;1.00;;;;;;6177120;23;20457;-65
2021/06/20 02:18:02;;;;;;;24.75;7.43;;;26.40;1.00;;;;;;6175204;23;20017;-63
2021/06/20 02:20:50;;;;;;;32.03;7.88;;;26.40;1.00;;;;;;6177503;23;20025;-64
2021/06/20 02:23:38;;;;;;;24.10;7.55;;;26.20;1.00;;;;;;6178385;23;20119;-65
2021/06/20 02:26:27;;;;;;;31.05;8.05;;;26.10;1.00;;;;;;6175418;23;20075;-65
2021/06/20 02:29:15;;;;;;;27.92;8.35;;;26.00;1.00;;;;;;6178228;23;20027;-65
2021/06/20 02:32:06;;;;;;;33.88;7.88;;;25.70;1.00;;;;;;6179012;23;20020;-65
2021/06/20 02:34:54;;;;;;;27.73;8.05;;;25.50;1.00;;;;;;6176537;23;20029;-65
2021/06/20 02:37:44;;;;;;;21.70;7.70;;;25.40;1.00;;;;;;6175739;23;20443;-64
2021/06/20 02:40:33;;;;;;;31.52;9.57;;;25.20;1.00;;;;;;6178175;23;20102;-64
2021/06/20 02:43:21;;;;;;;34.67;8.02;;;25.10;1.00;;;;;;6178487;23;20217;-64
2021/06/20 02:46:09;;;;;;;30.27;8.48;;;24.90;1.00;;;;;;6175799;23;20417;-65
2021/06/20 02:48:59;;;;;;;27.40;8.65;;;24.90;1.00;;;;;;6175768;23;20080;-64
2021/06/20 02:51:48;;;;;;;25.27;8.18;;;24.60;1.00;;;;;;6179641;23;20048;-64
2021/06/20 02:54:36;;;;;;;22.27;7.68;;;24.50;1.00;;;;;;6177420;23;20020;-64
2021/06/20 02:57:26;;;;;;;30.35;7.88;;;24.30;1.00;;;;;;6173971;23;20032;-64
2021/06/20 03:00:16;;;;;;;24.95;8.23;;;24.40;1.00;;;;;;6179243;23;20044;-64
2021/06/20 03:03:08;;;;;;;26.00;7.82;;;24.20;1.00;;;;;;6179457;23;20537;-64
2021/06/20 03:05:58;;;;;;;19.85;7.47;;;24.10;1.00;;;;;;6175743;23;20060;-64
2021/06/20 03:08:46;;;;;;;21.10;7.53;;;24.00;1.00;;;;;;6175554;23;20055;-65
2021/06/20 03:11:40;;;;;;;22.52;7.63;;;24.10;1.00;;;;;;6178452;23;20486;-64
2021/06/20 03:14:29;;;;;;;19.33;7.07;;;24.10;1.00;;;;;;6178254;23;20536;-63
2021/06/20 03:17:18;;;;;;;21.98;7.45;;;24.00;1.00;;;;;;6173876;23;20021;-64
2021/06/20 03:20:08;;;;;;;21.13;7.85;;;23.80;1.00;;;;;;6178574;23;20063;-64
2021/06/20 03:22:58;;;;;;;21.60;7.30;;;23.90;1.00;;;;;;6177681;23;20027;-64
2021/06/20 03:25:46;;;;;;;24.65;8.05;;;23.70;1.00;;;;;;6174998;23;20205;-64
2021/06/20 03:28:35;;;;;;;28.45;7.57;;;23.80;1.00;;;;;;6175229;23;20027;-64
2021/06/20 03:31:24;;;;;;;17.90;6.65;;;24.00;1.00;;;;;;6178764;23;20454;-65
2021/06/20 03:34:13;;;;;;;23.52;6.88;;;23.80;1.00;;;;;;6176678;23;20029;-64
2021/06/20 03:37:02;;;;;;;20.70;7.72;;;23.70;1.00;;;;;;6174400;23;20373;-64
2021/06/20 03:39:52;;;;;;;23.80;8.25;;;23.70;1.00;;;;;;6178318;23;20435;-65
2021/06/20 03:42:40;;;;;;;28.17;7.90;;;23.80;1.00;;;;;;6178803;23;20025;-65
2021/06/20 03:45:28;;;;;;;21.42;7.30;;;23.70;1.00;;;;;;6175072;23;20152;-64
2021/06/20 03:48:18;;;;;;;20.08;7.13;;;23.70;1.00;;;;;;6173929;23;20092;-64
2021/06/20 03:51:07;;;;;;;23.38;7.35;;;23.80;1.00;;;;;;6178804;23;20052;-65
2021/06/20 03:53:56;;;;;;;20.70;6.95;;;24.00;1.00;;;;;;6177753;23;20366;-65
2021/06/20 03:56:45;;;;;;;15.88;6.53;;;24.00;1.00;;;;;;6174862;23;20480;-66
2021/06/20 03:59:34;;;;;;;23.65;7.32;;;24.00;1.00;;;;;;6177322;23;20083;-65
2021/06/20 04:02:22;;;;;;;26.33;7.65;;;24.10;1.00;;;;;;6177770;23;20478;-65
2021/06/20 04:05:14;;;;;;;24.77;7.63;;;24.20;1.00;;;;;;6175855;23;20088;-65
2021/06/20 04:08:04;;;;;;;23.75;7.03;;;24.30;1.00;;;;;;6175211;23;20027;-64
2021/06/20 04:10:52;;;;;;;27.38;7.53;;;24.20;1.00;;;;;;6177860;23;20025;-65
2021/06/20 04:13:42;;;;;;;27.85;8.02;;;24.20;1.00;;;;;;6177293;23;20056;-65
2021/06/20 04:16:31;;;;;;;22.10;6.25;;;24.30;1.00;;;;;;6174826;23;20108;-65
2021/06/20 04:19:19;;;;;;;19.73;7.03;;;24.30;1.00;;;;;;6177523;23;20462;-65
2021/06/20 04:22:08;;;;;;;24.65;7.13;;;24.30;1.00;;;;;;6177620;23;20025;-65
2021/06/20 04:24:56;;;;;;;23.73;7.85;;;24.00;1.00;;;;;;6176051;23;20986;-65
2021/06/20 04:27:46;;;;;;;21.20;7.63;;;24.00;1.00;;;;;;6174127;23;20130;-63
2021/06/20 04:30:36;;;;;;;24.00;7.22;;;24.00;1.00;;;;;;6178489;23;20056;-64
2021/06/20 04:33:25;;;;;;;20.48;7.20;;;24.00;1.00;;;;;;6177516;23;20103;-65
2021/06/20 04:36:13;;;;;;;25.67;7.75;;;24.20;1.00;;;;;;6174759;23;20052;-64
2021/06/20 04:39:03;;;;;;;24.27;7.50;;;24.40;1.00;;;;;;6174471;23;20444;-64
2021/06/20 04:41:52;;;;;;;29.13;8.02;;;24.60;1.00;;;;;;6178217;23;20405;-65
2021/06/20 04:44:43;;;;;;;25.40;7.55;;;24.70;1.00;;;;;;6176700;23;20024;-65
2021/06/20 04:47:33;;;;;;;24.73;7.70;;;24.70;1.00;;;;;;6173551;23;20103;-64
2021/06/20 04:50:22;;;;;;;27.10;8.00;;;24.80;1.00;;;;;;6178007;23;20020;-64
2021/06/20 04:53:10;;;;;;;23.02;7.63;;;24.80;1.00;;;;;;6177801;23;20035;-65
2021/06/20 04:55:58;;;;;;;23.27;7.55;;;24.80;1.00;;;;;;6176108;23;20035;-65
2021/06/20 04:58:47;;;;;;;23.13;7.47;;;24.50;1.00;;;;;;6161809;23;20021;-65
2021/06/20 05:01:36;;;;;;;18.67;8.43;;;24.40;1.00;;;;;;6175164;23;20080;-64
2021/06/20 05:04:25;;;;;;;33.45;7.70;;;24.60;1.00;;;;;;6177939;23;20024;-64
2021/06/20 05:07:14;;;;;;;22.48;7.93;;;24.60;1.00;;;;;;6165912;23;20021;-64
2021/06/20 05:10:03;;;;;;;27.08;8.02;;;24.60;1.00;;;;;;6177358;23;20021;-65
2021/06/20 05:12:55;;;;;;;19.85;7.68;;;24.80;1.00;;;;;;6177375;23;20027;-64
2021/06/20 05:15:43;;;;;;;24.77;7.65;;;24.90;1.00;;;;;;6176410;23;20028;-65
2021/06/20 05:18:33;;;;;;;28.45;7.68;;;25.20;1.00;;;;;;6172285;23;20398;-64
2021/06/20 05:21:22;;;;;;;27.05;8.00;;;25.00;1.00;;;;;;6177840;23;20025;-65
2021/06/20 05:24:12;;;;;;;25.25;8.10;;;24.90;1.00;;;;;;6176978;23;20095;-65
2021/06/20 05:27:00;;;;;;;23.90;8.00;;;24.90;1.00;;;;;;6172965;23;20029;-64
2021/06/20 05:29:48;;;;;;;23.23;7.20;;;25.00;1.00;;;;;;6177196;23;20028;-65
2021/06/20 05:32:37;;;;;;;20.08;6.82;;;24.70;1.00;;;;;;6177356;23;20025;-65
2021/06/20 05:35:25;;;;;;;21.52;6.65;;;24.80;1.00;;;;;;6176689;23;20029;-64
2021/06/20 05:38:16;;;;;;;23.80;7.57;;;24.90;1.00;;;;;;6172403;23;20152;-65
2021/06/20 05:41:05;;;;;;;22.13;7.32;;;24.70;1.00;;;;;;6178377;23;20044;-65
2021/06/20 05:43:54;;;;;;;19.02;6.38;;;24.70;1.00;;;;;;6177132;23;20678;-64
2021/06/20 05:46:42;;;;;;;22.52;6.63;;;24.60;1.00;;;;;;6173094;23;20136;-64
2021/06/20 05:49:30;;;;;;;19.08;6.90;;;24.50;1.00;;;;;;6174378;23;20028;-65
2021/06/20 05:52:19;;;;;;;24.50;6.93;;;24.60;1.00;;;;;;6177810;23;20021;-64
2021/06/20 05:55:09;;;;;;;27.73;7.82;;;24.60;1.00;;;;;;6176751;23;20103;-64
2021/06/20 05:57:58;;;;;;;21.35;7.75;;;24.50;1.00;;;;;;6172448;23;20052;-64
2021/06/20 06:00:46;;;;;;;25.58;8.23;;;24.60;1.00;;;;;;6176269;23;20013;-65
2021/06/20 06:03:35;;;;;;;25.85;8.13;;;24.40;1.00;;;;;;6178451;23;20032;-64
2021/06/20 06:06:23;;;;;;;23.10;7.30;;;24.30;2.40;;;;;;6176704;23;20215;-64
2021/06/20 06:09:12;;;;;;;29.17;6.97;;;24.40;1.00;;;;;;6177397;23;20056;-64
2021/06/20 06:12:02;;;;;;;23.35;7.07;;;24.30;1.20;;;;;;6179121;23;20111;-64
2021/06/20 06:14:51;;;;;;;19.52;6.13;;;24.20;1.30;;;;;;6178645;23;20024;-65
2021/06/20 06:17:40;;;;;;;21.40;6.00;;;24.40;1.00;;;;;;6173908;23;20161;-63
2021/06/20 06:20:29;;;;;;;21.02;5.65;;;24.80;1.00;;;;;;6180203;23;20126;-65
2021/06/20 06:23:17;;;;;;;15.70;5.47;;;25.40;1.00;;;;;;6178812;23;20127;-65
2021/06/20 06:26:05;;;;;;;19.65;6.05;;;25.10;1.00;;;;;;6176896;23;20099;-64
2021/06/20 06:28:55;;;;;;;14.75;5.15;;;25.30;1.00;;;;;;6176099;23;20128;-64
2021/06/20 06:31:44;;;;;;;15.98;5.32;;;24.90;1.00;;;;;;6178994;23;20029;-64
2021/06/20 06:34:33;;;;;;;14.85;5.25;;;25.20;1.00;;;;;;6180239;23;20028;-65
2021/06/20 06:37:21;;;;;;;17.45;5.28;;;24.90;1.00;;;;;;6172465;23;20513;-63
2021/06/20 06:40:11;;;;;;;13.90;5.20;;;25.10;1.00;;;;;;6178858;23;20405;-65
2021/06/20 06:42:59;;;;;;;16.55;5.45;;;25.60;1.00;;;;;;6177797;23;20622;-65
2021/06/20 06:45:49;;;;;;;11.73;4.47;;;25.60;1.00;;;;;;6177460;23;20029;-64
2021/06/20 06:48:38;;;;;;;14.48;4.57;;;25.10;1.00;;;;;;6175181;23;20365;-64
2021/06/20 06:51:26;;;;;;;7.65;3.88;;;24.90;1.00;;;;;;6178119;23;20052;-65
2021/06/20 06:54:17;;;;;;;16.58;4.72;;;24.50;1.00;;;;;;6178772;23;20033;-64
2021/06/20 06:57:05;;;;;;;10.57;3.83;;;24.40;1.00;;;;;;6174548;23;20515;-63
2021/06/20 06:59:55;;;;;;;10.48;3.70;;;24.90;1.00;;;;;;6179472;23;20024;-64
2021/06/20 07:02:45;;;;;;;12.65;4.45;;;25.00;1.00;;;;;;6178205;23;20100;-65
2021/06/20 07:05:33;;;;;;;13.18;4.15;;;24.80;1.00;;;;;;6177414;23;20056;-66
2021/06/20 07:08:22;;;;;;;15.65;4.30;;;25.20;1.00;;;;;;6173328;23;20485;-65
2021/06/20 07:11:10;;;;;;;9.85;4.00;;;25.10;1.00;;;;;;6179118;23;20088;-65
2021/06/20 07:13:58;;;;;;;10.82;4.25;;;25.20;1.00;;;;;;6177577;23;20060;-66
2021/06/20 07:16:47;;;;;;;12.02;3.90;;;25.40;1.00;;;;;;6173874;23;20024;-65
2021/06/20 07:19:38;;;;;;;8.73;4.18;;;24.80;1.00;;;;;;6177325;23;20025;-65
2021/06/20 07:22:27;;;;;;;11.32;4.60;;;24.90;1.00;;;;;;6178335;23;20047;-65
2021/06/20 07:25:18;;;;;;;14.23;4.40;;;24.70;1.00;;;;;;6177438;23;20029;-64
2021/06/20 07:28:07;;;;;;;15.75;4.72;;;25.00;1.00;;;;;;6174219;23;20362;-65
2021/06/20 07:30:56;;;;;;;9.68;3.97;;;25.70;1.00;;;;;;6178019;23;20467;-65
2021/06/20 07:33:45;;;;;;;12.38;4.28;;;25.80;1.00;;;;;;6177728;23;20024;-65
2021/06/20 07:36:35;;;;;;;11.85;3.83;;;25.50;1.00;;;;;;6175384;23;20035;-64
2021/06/20 07:39:23;;;;;;;6.32;3.25;;;25.40;1.00;;;;;;6177964;23;20017;-65
2021/06/20 07:42:12;;;;;;;10.77;3.80;;;25.20;1.00;;;;;;6178346;23;20021;-64
2021/06/20 07:45:00;;;;;;;13.52;3.50;;;25.20;1.00;;;;;;6176964;23;20118;-64
2021/06/20 07:47:49;;;;;;;6.47;3.17;;;25.30;1.00;;;;;;6173030;23;20025;-64
2021/06/20 07:50:38;;;;;;;9.75;3.72;;;25.30;1.00;;;;;;6178651;23;20025;-65
2021/06/20 07:53:27;;;;;;;7.70;3.40;;;25.30;1.00;;;;;;6177555;23;20075;-64
2021/06/20 07:56:16;;;;;;;7.28;3.33;;;25.50;1.00;;;;;;6175297;23;20090;-64
2021/06/20 07:59:04;;;;;;;7.22;3.40;;;25.50;1.00;;;;;;6175019;23;20033;-64
2021/06/20 08:01:53;;;;;;;10.25;3.47;;;25.70;1.00;;;;;;6178490;23;20021;-64
2021/06/20 08:04:42;;;;;;;8.57;3.28;;;25.60;1.00;;;;;;6177924;23;20068;-64
2021/06/20 08:07:30;;;;;;;12.05;4.50;;;25.20;1.00;;;;;;6172650;23;20017;-65
2021/06/20 08:10:20;;;;;;;10.13;4.07;;;24.60;1.00;;;;;;6177937;23;20025;-66
2021/06/20 08:13:08;;;;;;;10.77;3.70;;;25.10;1.00;;;;;;6177998;23;20334;-65
2021/06/20 08:15:57;;;;;;;13.05;4.15;;;25.60;1.00;;;;;;6175645;23;20032;-63
2021/06/20 08:18:45;;;;;;;8.38;3.50;;;25.70;1.00;;;;;;6174923;23;20498;-64
2021/06/20 08:21:33;;;;;;;11.35;3.67;;;25.60;1.00;;;;;;6177359;23;20107;-66
2021/06/20 08:24:22;;;;;;;10.38;3.30;;;25.70;1.00;;;;;;6177389;23;20126;-64
2021/06/20 08:27:13;;;;;;;9.45;3.50;;;25.60;1.00;;;;;;6173491;23;20031;-64
2021/06/20 08:30:07;;;;;;;;;;;25.30;1.00;;;;;;6176527;23;20455;-64
2021/06/20 08:32:55;;;;;;;8.65;3.22;;;25.30;1.00;;;;;;6177834;23;19994;-65
2021/06/20 08:35:43;;;;;;;8.35;2.95;;;25.10;1.00;;;;;;6175978;23;20021;-65
2021/06/20 08:38:32;;;;;;;15.30;3.25;;;24.90;1.00;;;;;;6174802;23;20029;-65
2021/06/20 08:41:22;;;;;;;7.68;3.25;;;25.20;1.00;;;;;;6177968;23;20084;-64
2021/06/20 08:44:21;;;;;;;6.00;3.30;;;25.30;1.00;;;;;;6177484;23;20020;-66
2021/06/20 08:47:09;;;;;;;7.10;3.45;;;25.20;1.00;;;;;;6172925;23;20052;-64
2021/06/20 08:49:58;;;;;;;12.30;3.63;;;25.30;1.00;;;;;;6177171;23;20021;-65
2021/06/20 08:52:46;;;;;;;10.02;3.78;;;25.10;1.00;;;;;;6177799;23;20024;-65
2021/06/20 08:55:35;;;;;;;8.02;2.80;;;25.10;1.00;;;;;;6175534;23;20061;-65
2021/06/20 08:58:26;;;;;;;7.25;3.17;;;24.90;1.00;;;;;;6174117;23;20103;-65
2021/06/20 09:01:16;;;;;;;10.82;3.35;;;25.30;1.00;;;;;;6177666;23;20027;-65
2021/06/20 09:04:05;;;;;;;9.02;3.17;;;25.50;1.00;;;;;;6177832;23;20052;-65
2021/06/20 09:06:53;;;;;;;10.45;3.08;;;25.40;1.00;;;;;;6171732;23;20031;-63
2021/06/20 09:09:41;;;;;;;8.57;2.90;;;25.80;1.00;;;;;;6166649;23;20573;-64
2021/06/20 09:12:30;;;;;;;10.00;3.30;;;25.60;1.00;;;;;;6177578;23;20059;-64
2021/06/20 09:15:20;;;;;;;8.70;2.90;;;25.70;1.00;;;;;;6176734;23;20032;-63
2021/06/20 09:18:11;;;;;;;9.45;3.33;;;25.70;1.00;;;;;;6171852;23;20048;-64
2021/06/20 09:20:59;;;;;;;10.20;3.72;;;25.30;1.00;;;;;;6176786;23;20445;-64
2021/06/20 09:23:47;;;;;;;6.40;3.25;;;25.30;1.00;;;;;;6176839;23;20096;-64
2021/06/20 09:26:38;;;;;;;8.45;3.30;;;25.10;1.00;;;;;;6175454;23;20510;-64
2021/06/20 09:29:31;;;;;;;5.40;3.20;;;24.80;1.00;;;;;;6173482;23;20075;-63
2021/06/20 09:32:19;;;;;;;6.18;3.35;;;25.40;1.00;;;;;;6176965;23;20017;-65
2021/06/20 09:35:10;;;;;;;11.70;3.78;;;25.90;1.00;;;;;;6175272;23;20040;-65
2021/06/20 09:37:59;;;;;;;10.48;3.63;;;25.40;1.00;;;;;;6172205;23;20530;-64
2021/06/20 09:40:48;;;;;;;13.73;3.75;;;25.80;1.00;;;;;;6180006;23;20669;-65
2021/06/20 09:43:38;;;;;;;15.07;4.38;;;26.20;1.00;;;;;;6178581;23;20024;-65
2021/06/20 09:46:28;;;;;;;8.00;3.72;;;26.00;1.00;;;;;;6176832;23;20025;-65
2021/06/20 09:49:27;;;;;;;14.48;3.92;;;26.10;1.00;;;;;;6175581;23;20028;-64
2021/06/20 09:52:27;;;;;;;13.50;3.92;;;26.10;1.00;;;;;;6179346;23;20025;-65
2021/06/20 09:55:17;;;;;;;11.07;3.45;;;26.30;1.00;;;;;;6177987;23;20590;-65
2021/06/20 09:58:06;;;;;;;10.82;3.65;;;26.50;1.00;;;;;;6172912;23;20032;-65
2021/06/20 10:00:54;;;;;;;11.23;4.07;;;26.10;1.00;;;;;;6179086;23;20017;-65
2021/06/20 10:03:44;;;;;;;10.65;3.42;;;26.60;1.00;;;;;;6179100;23;20023;-65
2021/06/20 10:06:32;;;;;;;12.20;4.00;;;27.20;1.00;;;;;;6176855;23;20021;-66
2021/06/20 10:09:22;;;;;;;13.45;4.00;;;27.00;1.00;;;;;;6175917;23;20122;-65
2021/06/20 10:12:11;;;;;;;9.70;3.78;;;26.70;1.00;;;;;;6179154;23;20385;-65
2021/06/20 10:15:02;;;;;;;11.20;3.78;;;26.30;1.00;;;;;;6177840;23;20033;-65
2021/06/20 10:17:57;;;;;;;11.70;3.70;;;25.80;1.00;;;;;;6173195;23;20056;-65
2021/06/20 10:20:45;;;;;;;9.88;3.90;;;26.50;1.00;;;;;;6178915;23;20099;-64
2021/06/20 10:23:34;;;;;;;13.48;4.30;;;26.50;1.00;;;;;;6178640;23;20036;-65
2021/06/20 10:26:24;;;;;;;9.90;4.22;;;26.30;1.00;;;;;;6178099;23;20537;-65
2021/06/20 10:29:20;;;;;;;13.75;4.25;;;26.20;1.00;;;;;;6174310;23;20071;-64
2021/06/20 10:32:18;;;;;;;14.93;5.25;;;25.90;1.00;;;;;;6177021;23;20021;-64
2021/06/20 10:35:10;;;;;;;11.10;4.03;;;26.40;1.00;;;;;;6175620;23;20031;-66
2021/06/20 10:37:59;;;;;;;14.05;5.10;;;26.20;1.00;;;;;;6172133;23;20062;-66
2021/06/20 10:40:47;;;;;;;9.93;4.15;;;26.60;1.00;;;;;;6179119;23;20533;-65
2021/06/20 10:43:38;;;;;;;9.80;4.43;;;26.60;1.00;;;;;;6178266;23;20040;-66
2021/06/20 10:46:26;;;;;;;12.77;3.97;;;26.50;1.00;;;;;;6176568;23;20025;-64
2021/06/20 10:49:17;;;;;;;13.55;3.70;;;26.90;1.00;;;;;;6173316;23;20025;-65
2021/06/20 10:52:15;;;;;;;12.30;3.80;;;26.60;1.00;;;;;;6179986;23;20405;-65
2021/06/20 10:55:14;;;;;;;20.60;13.00;;;26.90;1.00;;;;;;6176905;23;20060;-65
2021/06/20 10:58:03;;;;;;;13.05;6.05;;;27.10;1.00;;;;;;6172937;23;20086;-65
2021/06/20 11:01:06;;;;;;;13.60;5.35;;;27.10;1.00;;;;;;6178645;23;20025;-65
2021/06/20 11:04:01;;;;;;;10.63;4.57;;;27.20;1.00;;;;;;6178232;23;20029;-66
2021/06/20 11:06:54;;;;;;;10.90;4.65;;;27.20;1.00;;;;;;6174829;23;20025;-65
2021/06/20 11:09:42;;;;;;;14.93;4.65;;;27.40;1.00;;;;;;6175616;23;20021;-64
2021/06/20 11:12:31;;;;;;;7.93;3.80;;;27.10;1.00;;;;;;6178102;23;20427;-67
2021/06/20 11:15:25;;;;;;;10.85;4.88;;;27.30;1.00;;;;;;6178296;23;20036;-65
2021/06/20 11:18:15;;;;;;;9.80;4.03;;;27.50;1.00;;;;;;6171602;23;20367;-65
2021/06/20 11:21:04;;;;;;;11.63;4.13;;;27.10;1.00;;;;;;6178260;23;20021;-65
2021/06/20 11:23:53;;;;;;;13.85;4.78;;;27.50;1.00;;;;;;6177467;23;20036;-65
2021/06/20 11:26:52;;;;;;;8.32;4.07;;;27.70;1.00;;;;;;6174407;23;20081;-66
2021/06/20 11:29:43;;;;;;;16.15;4.05;;;27.80;1.00;;;;;;6177632;23;20165;-66
2021/06/20 11:32:34;;;;;;;12.52;4.07;;;28.30;1.00;;;;;;6179278;23;20544;-64
2021/06/20 11:35:24;;;;;;;8.95;4.32;;;27.70;1.00;;;;;;6177318;23;20029;-66
2021/06/20 11:38:13;;;;;;;17.80;4.10;;;28.90;1.00;;;;;;6173709;23;20083;-65
2021/06/20 11:41:16;;;;;;;9.85;3.58;;;29.10;1.00;;;;;;6175448;23;20024;-66
2021/06/20 11:44:05;;;;;;;9.88;3.78;;;29.10;1.00;;;;;;6177789;23;20111;-64
2021/06/20 11:46:54;;;;;;;11.70;3.85;;;29.30;1.00;;;;;;6174783;23;20708;-63
2021/06/20 11:49:42;;;;;;;8.65;3.38;;;29.30;1.00;;;;;;6176093;23;20031;-64
2021/06/20 11:52:32;;;;;;;8.98;3.72;;;29.90;1.00;;;;;;6176819;23;20021;-65
2021/06/20 11:55:21;;;;;;;10.50;3.33;;;29.70;1.00;;;;;;6167050;23;20039;-63
2021/06/20 11:58:13;;;;;;;15.13;3.53;;;30.00;1.00;;;;;;6165420;23;20028;-63
2021/06/20 12:01:01;;;;;;;8.27;3.83;;;29.90;1.00;;;;;;6167830;23;20577;-64
2021/06/20 12:03:50;;;;;;;11.93;3.58;;;29.80;1.00;;;;;;6169931;23;20043;-64
2021/06/20 12:06:39;;;;;;;14.65;3.38;;;29.70;1.00;;;;;;6166689;23;20095;-63
2021/06/20 12:09:29;;;;;;;13.77;3.70;;;29.80;1.00;;;;;;6168649;23;20060;-64
2021/06/20 12:12:18;;;;;;;9.98;3.33;;;29.80;1.00;;;;;;6168059;23;20103;-64
2021/06/20 12:15:08;;;;;;;12.93;2.85;;;29.80;1.00;;;;;;6168854;23;20073;-64
2021/06/20 12:17:57;;;;;;;14.63;3.63;;;29.50;1.00;;;;;;6164191;23;20297;-64
2021/06/20 12:20:52;;;;;;;16.05;3.45;;;29.80;1.00;;;;;;6167244;23;20408;-65
2021/06/20 12:23:41;;;;;;;13.02;4.22;;;29.70;1.00;;;;;;6169705;23;20028;-66
2021/06/20 12:26:33;;;;;;;12.85;3.40;;;29.90;1.00;;;;;;6169029;23;20041;-65
2021/06/20 12:29:32;;;;;;;14.63;3.67;;;29.60;1.00;;;;;;6167760;23;20031;-65
2021/06/20 12:32:20;;;;;;;9.27;3.70;;;29.90;1.00;;;;;;6166965;23;20020;-65
2021/06/20 12:35:10;;;;;;;25.30;4.85;;;30.40;1.00;;;;;;6171355;23;20374;-64
2021/06/20 12:37:59;;;;;;;15.38;4.15;;;30.10;1.00;;;;;;6165529;23;20035;-61
2021/06/20 12:40:48;;;;;;;19.15;4.10;;;30.00;1.00;;;;;;6167727;23;20029;-65
2021/06/20 12:43:37;;;;;;;15.98;3.78;;;29.80;1.00;;;;;;6169005;23;20083;-62
2021/06/20 12:46:29;;;;;;;18.60;3.88;;;30.10;1.00;;;;;;6166911;23;20021;-63
2021/06/20 12:49:18;;;;;;;16.80;4.25;;;29.80;1.00;;;;;;6167425;23;20021;-62
2021/06/20 12:52:07;;;;;;;12.55;3.80;;;29.80;1.00;;;;;;6168565;23;20017;-64
2021/06/20 12:54:56;;;;;;;14.30;3.72;;;29.40;1.00;;;;;;6168950;23;20025;-62
2021/06/20 12:57:51;;;;;;;16.45;4.03;;;29.80;1.00;;;;;;6164301;23;20025;-61
2021/06/20 13:00:41;;;;;;;20.25;4.38;;;30.30;1.00;;;;;;6166721;23;20319;-63
2021/06/20 13:03:32;;;;;;;20.10;3.92;;;30.20;1.00;;;;;;6167844;23;20096;-62
2021/06/20 13:06:22;;;;;;;24.38;4.20;;;30.30;1.00;;;;;;6168622;23;20473;-63
2021/06/20 13:09:11;;;;;;;22.23;4.07;;;30.10;1.00;;;;;;6166570;23;20051;-62
2021/06/20 13:12:00;;;;;;;24.42;4.80;;;30.20;1.00;;;;;;6168104;23;20039;-63
2021/06/20 13:14:48;;;;;;;23.85;4.07;;;29.80;1.00;;;;;;6170095;23;20036;-74
2021/06/20 13:17:38;;;;;;;14.52;4.28;;;30.10;1.00;;;;;;6166972;23;20065;-66
2021/06/20 13:20:28;;;;;;;19.98;4.68;;;30.20;1.00;;;;;;6169454;23;20052;-67
2021/06/20 13:23:16;;;;;;;17.05;4.43;;;30.40;1.00;;;;;;6171275;23;20057;-68
2021/06/20 13:26:05;;;;;;;18.83;4.45;;;30.00;1.00;;;;;;6168209;23;20017;-66
2021/06/20 13:28:53;;;;;;;19.83;4.53;;;29.90;1.00;;;;;;6168065;23;20410;-67
2021/06/20 13:31:42;;;;;;;18.42;4.22;;;30.30;1.00;;;;;;6168669;23;20151;-66
2021/06/20 13:34:32;;;;;;;18.05;4.00;;;30.50;1.00;;;;;;6170325;23;20230;-68
2021/06/20 13:37:22;;;;;;;21.00;4.50;;;30.50;1.00;;;;;;6166868;23;20322;-65
2021/06/20 13:40:12;;;;;;;15.40;4.47;;;30.90;1.00;;;;;;6168482;23;20056;-66
2021/06/20 13:43:00;;;;;;;18.40;4.50;;;31.10;1.00;;;;;;6171695;23;20031;-68
2021/06/20 13:45:51;;;;;;;25.80;5.00;;;30.70;1.00;;;;;;6169310;23;20099;-67
2021/06/20 13:48:39;;;;;;;30.85;4.80;;;30.50;1.00;;;;;;6167198;23;20111;-66
2021/06/20 13:51:29;;;;;;;20.13;4.65;;;30.80;1.00;;;;;;6169136;23;20025;-67
2021/06/20 13:54:17;;;;;;;20.90;4.65;;;31.00;1.00;;;;;;6168860;23;20060;-67
2021/06/20 13:57:06;;;;;;;23.50;5.63;;;30.40;1.00;;;;;;6167437;23;20164;-66
2021/06/20 13:59:55;;;;;;;24.42;5.03;;;30.10;1.00;;;;;;6169753;23;20393;-67
2021/06/20 14:02:43;;;;;;;18.98;5.05;;;29.70;1.00;;;;;;6169957;23;20092;-67
2021/06/20 14:05:32;;;;;;;23.15;4.95;;;29.80;1.00;;;;;;6169005;23;20416;-66
2021/06/20 14:08:21;;;;;;;27.90;4.70;;;29.70;1.00;;;;;;6167023;23;20051;-67
2021/06/20 14:11:10;;;;;;;19.98;5.22;;;29.80;1.00;;;;;;6170072;23;20025;-67
2021/06/20 14:13:58;;;;;;;21.88;5.18;;;30.30;1.00;;;;;;6169678;23;20021;-67
2021/06/20 14:16:47;;;;;;;27.73;5.05;;;30.30;1.00;;;;;;6168682;23;20025;-67
2021/06/20 14:19:36;;;;;;;32.33;5.38;;;29.90;1.00;;;;;;6170801;23;20036;-66
2021/06/20 14:22:24;;;;;;;21.08;5.25;;;29.60;1.00;;;;;;6173468;23;20031;-67
2021/06/20 14:25:14;;;;;;;19.10;4.82;;;29.70;1.00;;;;;;6171052;23;20036;-66
2021/06/20 14:28:04;;;;;;;21.95;5.07;;;29.70;1.00;;;;;;6168468;23;20035;-66
2021/06/20 14:30:53;;;;;;;15.70;4.85;;;29.70;1.00;;;;;;6170059;23;20653;-67
2021/06/20 14:33:41;;;;;;;22.50;4.97;;;29.80;1.00;;;;;;6170139;23;20119;-66
2021/06/20 14:36:30;;;;;;;22.35;5.45;;;30.00;1.00;;;;;;6168831;23;20079;-66
2021/06/20 14:39:24;;;;;;;21.75;5.03;;;29.90;1.00;;;;;;6169172;23;20536;-69
2021/06/20 14:42:14;;;;;;;15.00;4.63;;;29.90;1.00;;;;;;6171634;23;20494;-66
2021/06/20 14:45:04;;;;;;;24.90;4.88;;;30.20;1.00;;;;;;6169883;23;20029;-66